sensor_id;sensor_type;location;lat;lon;timestamp;P1;durP1;ratioP1;P2;durP2;ratioP2
579;SDS011;276;48.392;9.950;2022-07-18T00:00:59;4.57;;;3.00;;
579;SDS011;276;48.392;9.950;2022-07-18T00:03:25;2.63;;;2.43;;
579;SDS011;276;48.392;9.950;2022-07-18T00:05:53;4.43;;;3.67;;
579;SDS011;276;48.392;9.950;2022-07-18T00:08:19;3.67;;;3.37;;
579;SDS011;276;48.392;9.950;2022-07-18T00:10:47;3.10;;;2.90;;
579;SDS011;276;48.392;9.950;2022-07-18T00:13:15;3.07;;;2.73;;
579;SDS011;276;48.392;9.950;2022-07-18T00:15:43;2.80;;;2.60;;
579;SDS011;276;48.392;9.950;2022-07-18T00:18:11;3.43;;;3.23;;
579;SDS011;276;48.392;9.950;2022-07-18T00:20:39;3.40;;;3.10;;
579;SDS011;276;48.392;9.950;2022-07-18T00:23:05;2.90;;;2.50;;
579;SDS011;276;48.392;9.950;2022-07-18T00:25:30;3.10;;;2.87;;
579;SDS011;276;48.392;9.950;2022-07-18T00:28:03;2.57;;;2.40;;
579;SDS011;276;48.392;9.950;2022-07-18T00:30:28;3.27;;;2.47;;
579;SDS011;276;48.392;9.950;2022-07-18T00:32:54;2.50;;;2.30;;
579;SDS011;276;48.392;9.950;2022-07-18T00:35:22;2.70;;;2.50;;
579;SDS011;276;48.392;9.950;2022-07-18T00:37:50;2.20;;;2.10;;
579;SDS011;276;48.392;9.950;2022-07-18T00:40:16;2.83;;;2.63;;
579;SDS011;276;48.392;9.950;2022-07-18T00:42:43;2.43;;;2.23;;
579;SDS011;276;48.392;9.950;2022-07-18T00:45:12;3.00;;;2.63;;
579;SDS011;276;48.392;9.950;2022-07-18T00:47:41;2.83;;;2.63;;
579;SDS011;276;48.392;9.950;2022-07-18T00:50:07;2.30;;;2.10;;
579;SDS011;276;48.392;9.950;2022-07-18T00:52:35;2.57;;;2.37;;
579;SDS011;276;48.392;9.950;2022-07-18T00:55:02;2.37;;;2.17;;
579;SDS011;276;48.392;9.950;2022-07-18T00:57:34;2.90;;;2.53;;
579;SDS011;276;48.392;9.950;2022-07-18T01:00:00;3.20;;;2.50;;
579;SDS011;276;48.392;9.950;2022-07-18T01:02:45;4.07;;;2.60;;
579;SDS011;276;48.392;9.950;2022-07-18T01:05:11;2.90;;;2.67;;
579;SDS011;276;48.392;9.950;2022-07-18T01:07:38;3.53;;;2.57;;
579;SDS011;276;48.392;9.950;2022-07-18T01:10:04;2.93;;;2.73;;
579;SDS011;276;48.392;9.950;2022-07-18T01:12:30;5.20;;;2.50;;
579;SDS011;276;48.392;9.950;2022-07-18T01:14:59;3.07;;;2.67;;
579;SDS011;276;48.392;9.950;2022-07-18T01:17:24;2.83;;;2.63;;
579;SDS011;276;48.392;9.950;2022-07-18T01:19:55;2.20;;;2.00;;
579;SDS011;276;48.392;9.950;2022-07-18T01:22:20;4.63;;;2.30;;
579;SDS011;276;48.392;9.950;2022-07-18T01:24:49;3.13;;;2.83;;
579;SDS011;276;48.392;9.950;2022-07-18T01:27:18;2.00;;;1.90;;
579;SDS011;276;48.392;9.950;2022-07-18T01:29:46;3.40;;;2.27;;
579;SDS011;276;48.392;9.950;2022-07-18T01:32:13;2.47;;;2.33;;
579;SDS011;276;48.392;9.950;2022-07-18T01:34:39;2.00;;;1.90;;
579;SDS011;276;48.392;9.950;2022-07-18T01:37:12;3.40;;;2.47;;
579;SDS011;276;48.392;9.950;2022-07-18T01:39:38;2.00;;;1.90;;
579;SDS011;276;48.392;9.950;2022-07-18T01:42:06;2.30;;;1.80;;
579;SDS011;276;48.392;9.950;2022-07-18T01:44:34;2.27;;;2.10;;
579;SDS011;276;48.392;9.950;2022-07-18T01:47:00;2.53;;;2.20;;
579;SDS011;276;48.392;9.950;2022-07-18T01:49:29;2.80;;;2.50;;
579;SDS011;276;48.392;9.950;2022-07-18T01:52:00;3.07;;;1.97;;
579;SDS011;276;48.392;9.950;2022-07-18T01:54:29;2.07;;;1.97;;
579;SDS011;276;48.392;9.950;2022-07-18T01:56:57;1.57;;;1.47;;
579;SDS011;276;48.392;9.950;2022-07-18T01:59:24;1.80;;;1.70;;
579;SDS011;276;48.392;9.950;2022-07-18T02:01:52;2.27;;;1.90;;
579;SDS011;276;48.392;9.950;2022-07-18T02:04:22;4.53;;;2.60;;
579;SDS011;276;48.392;9.950;2022-07-18T02:07:06;2.70;;;2.10;;
579;SDS011;276;48.392;9.950;2022-07-18T02:09:32;3.20;;;2.47;;
579;SDS011;276;48.392;9.950;2022-07-18T02:11:58;4.90;;;2.00;;
579;SDS011;276;48.392;9.950;2022-07-18T02:14:23;2.30;;;1.77;;
579;SDS011;276;48.392;9.950;2022-07-18T02:16:49;2.30;;;2.10;;
579;SDS011;276;48.392;9.950;2022-07-18T02:19:14;1.70;;;1.60;;
579;SDS011;276;48.392;9.950;2022-07-18T02:21:40;1.67;;;1.57;;
579;SDS011;276;48.392;9.950;2022-07-18T02:24:06;2.50;;;1.77;;
579;SDS011;276;48.392;9.950;2022-07-18T02:26:32;2.17;;;2.00;;
579;SDS011;276;48.392;9.950;2022-07-18T02:29:00;1.87;;;1.77;;
579;SDS011;276;48.392;9.950;2022-07-18T02:31:26;2.40;;;1.97;;
579;SDS011;276;48.392;9.950;2022-07-18T02:33:54;2.07;;;1.60;;
579;SDS011;276;48.392;9.950;2022-07-18T02:36:19;3.00;;;1.93;;
579;SDS011;276;48.392;9.950;2022-07-18T02:38:45;3.20;;;2.37;;
579;SDS011;276;48.392;9.950;2022-07-18T02:41:11;2.43;;;1.60;;
579;SDS011;276;48.392;9.950;2022-07-18T02:43:36;1.90;;;1.80;;
579;SDS011;276;48.392;9.950;2022-07-18T02:46:02;2.20;;;2.00;;
579;SDS011;276;48.392;9.950;2022-07-18T02:48:28;1.90;;;1.67;;
579;SDS011;276;48.392;9.950;2022-07-18T02:50:56;2.20;;;1.50;;
579;SDS011;276;48.392;9.950;2022-07-18T02:53:22;1.63;;;1.53;;
579;SDS011;276;48.392;9.950;2022-07-18T02:55:49;1.93;;;1.83;;
579;SDS011;276;48.392;9.950;2022-07-18T02:58:15;1.97;;;1.87;;
579;SDS011;276;48.392;9.950;2022-07-18T03:00:44;2.60;;;2.40;;
579;SDS011;276;48.392;9.950;2022-07-18T03:03:10;3.20;;;1.93;;
579;SDS011;276;48.392;9.950;2022-07-18T03:05:38;4.40;;;2.00;;
579;SDS011;276;48.392;9.950;2022-07-18T03:08:03;1.93;;;1.80;;
579;SDS011;276;48.392;9.950;2022-07-18T03:10:31;7.83;;;2.27;;
579;SDS011;276;48.392;9.950;2022-07-18T03:12:59;2.40;;;2.20;;
579;SDS011;276;48.392;9.950;2022-07-18T03:15:27;2.43;;;2.00;;
579;SDS011;276;48.392;9.950;2022-07-18T03:17:53;1.93;;;1.80;;
579;SDS011;276;48.392;9.950;2022-07-18T03:20:20;2.10;;;2.00;;
579;SDS011;276;48.392;9.950;2022-07-18T03:22:46;2.10;;;2.00;;
579;SDS011;276;48.392;9.950;2022-07-18T03:25:12;4.00;;;1.87;;
579;SDS011;276;48.392;9.950;2022-07-18T03:27:37;2.23;;;2.03;;
579;SDS011;276;48.392;9.950;2022-07-18T03:30:03;2.70;;;2.40;;
579;SDS011;276;48.392;9.950;2022-07-18T03:32:31;3.33;;;2.40;;
579;SDS011;276;48.392;9.950;2022-07-18T03:34:57;2.13;;;2.03;;
579;SDS011;276;48.392;9.950;2022-07-18T03:37:23;1.80;;;1.70;;
579;SDS011;276;48.392;9.950;2022-07-18T03:39:48;2.50;;;2.30;;
579;SDS011;276;48.392;9.950;2022-07-18T03:42:16;1.70;;;1.60;;
579;SDS011;276;48.392;9.950;2022-07-18T03:44:42;2.27;;;2.17;;
579;SDS011;276;48.392;9.950;2022-07-18T03:47:08;2.20;;;1.80;;
579;SDS011;276;48.392;9.950;2022-07-18T03:49:33;2.70;;;1.80;;
579;SDS011;276;48.392;9.950;2022-07-18T03:51:59;2.07;;;1.83;;
579;SDS011;276;48.392;9.950;2022-07-18T03:54:26;4.83;;;2.07;;
579;SDS011;276;48.392;9.950;2022-07-18T03:56:52;1.83;;;1.73;;
579;SDS011;276;48.392;9.950;2022-07-18T03:59:20;2.70;;;2.50;;
579;SDS011;276;48.392;9.950;2022-07-18T04:01:46;2.10;;;2.00;;
579;SDS011;276;48.392;9.950;2022-07-18T04:04:14;2.13;;;1.47;;
579;SDS011;276;48.392;9.950;2022-07-18T04:06:39;1.87;;;1.70;;
579;SDS011;276;48.392;9.950;2022-07-18T04:09:05;2.20;;;1.87;;
579;SDS011;276;48.392;9.950;2022-07-18T04:11:31;4.30;;;1.73;;
579;SDS011;276;48.392;9.950;2022-07-18T04:13:56;2.30;;;1.67;;
579;SDS011;276;48.392;9.950;2022-07-18T04:16:22;2.07;;;1.90;;
579;SDS011;276;48.392;9.950;2022-07-18T04:18:48;3.37;;;2.33;;
579;SDS011;276;48.392;9.950;2022-07-18T04:21:16;2.30;;;2.10;;
579;SDS011;276;48.392;9.950;2022-07-18T04:23:44;4.03;;;1.80;;
579;SDS011;276;48.392;9.950;2022-07-18T04:26:10;2.00;;;1.70;;
579;SDS011;276;48.392;9.950;2022-07-18T04:28:37;2.23;;;1.70;;
579;SDS011;276;48.392;9.950;2022-07-18T04:31:05;2.40;;;1.60;;
579;SDS011;276;48.392;9.950;2022-07-18T04:33:34;2.20;;;1.40;;
579;SDS011;276;48.392;9.950;2022-07-18T04:35:59;1.87;;;1.77;;
579;SDS011;276;48.392;9.950;2022-07-18T04:38:31;1.60;;;1.50;;
579;SDS011;276;48.392;9.950;2022-07-18T04:40:59;1.87;;;1.77;;
579;SDS011;276;48.392;9.950;2022-07-18T04:43:24;2.20;;;2.10;;
579;SDS011;276;48.392;9.950;2022-07-18T04:45:50;2.50;;;2.17;;
579;SDS011;276;48.392;9.950;2022-07-18T04:48:18;2.20;;;1.73;;
579;SDS011;276;48.392;9.950;2022-07-18T04:50:46;4.47;;;1.70;;
579;SDS011;276;48.392;9.950;2022-07-18T04:53:14;3.33;;;2.40;;
579;SDS011;276;48.392;9.950;2022-07-18T04:55:42;2.83;;;2.63;;
579;SDS011;276;48.392;9.950;2022-07-18T04:58:08;2.50;;;2.30;;
579;SDS011;276;48.392;9.950;2022-07-18T05:00:33;2.50;;;2.30;;
579;SDS011;276;48.392;9.950;2022-07-18T05:02:59;2.53;;;2.33;;
579;SDS011;276;48.392;9.950;2022-07-18T05:05:27;5.00;;;2.70;;
579;SDS011;276;48.392;9.950;2022-07-18T05:07:53;2.27;;;2.07;;
579;SDS011;276;48.392;9.950;2022-07-18T05:10:21;2.97;;;2.73;;
579;SDS011;276;48.392;9.950;2022-07-18T05:12:51;4.00;;;3.70;;
579;SDS011;276;48.392;9.950;2022-07-18T05:15:20;3.40;;;3.20;;
579;SDS011;276;48.392;9.950;2022-07-18T05:17:47;3.60;;;3.30;;
579;SDS011;276;48.392;9.950;2022-07-18T05:20:15;3.10;;;2.90;;
579;SDS011;276;48.392;9.950;2022-07-18T05:22:42;3.70;;;3.30;;
579;SDS011;276;48.392;9.950;2022-07-18T05:25:09;2.57;;;2.37;;
579;SDS011;276;48.392;9.950;2022-07-18T05:27:35;4.53;;;3.00;;
579;SDS011;276;48.392;9.950;2022-07-18T05:30:03;3.50;;;3.30;;
579;SDS011;276;48.392;9.950;2022-07-18T05:32:30;3.10;;;2.90;;
579;SDS011;276;48.392;9.950;2022-07-18T05:34:58;4.07;;;3.40;;
579;SDS011;276;48.392;9.950;2022-07-18T05:37:27;3.37;;;3.07;;
579;SDS011;276;48.392;9.950;2022-07-18T05:39:53;2.77;;;2.57;;
579;SDS011;276;48.392;9.950;2022-07-18T05:42:19;3.63;;;2.87;;
579;SDS011;276;48.392;9.950;2022-07-18T05:44:45;2.90;;;2.60;;
579;SDS011;276;48.392;9.950;2022-07-18T05:47:11;6.80;;;3.00;;
579;SDS011;276;48.392;9.950;2022-07-18T05:49:39;3.00;;;2.70;;
579;SDS011;276;48.392;9.950;2022-07-18T05:52:06;3.43;;;2.60;;
579;SDS011;276;48.392;9.950;2022-07-18T05:54:34;2.73;;;2.53;;
579;SDS011;276;48.392;9.950;2022-07-18T05:56:59;4.53;;;2.90;;
579;SDS011;276;48.392;9.950;2022-07-18T05:59:28;2.40;;;2.20;;
579;SDS011;276;48.392;9.950;2022-07-18T06:01:56;2.53;;;2.33;;
579;SDS011;276;48.392;9.950;2022-07-18T06:04:21;3.27;;;2.77;;
579;SDS011;276;48.392;9.950;2022-07-18T06:06:47;3.90;;;3.57;;
579;SDS011;276;48.392;9.950;2022-07-18T06:09:15;3.70;;;2.40;;
579;SDS011;276;48.392;9.950;2022-07-18T06:11:41;4.00;;;2.80;;
579;SDS011;276;48.392;9.950;2022-07-18T06:14:09;3.40;;;2.73;;
579;SDS011;276;48.392;9.950;2022-07-18T06:16:35;5.07;;;2.70;;
579;SDS011;276;48.392;9.950;2022-07-18T06:19:03;3.83;;;2.80;;
579;SDS011;276;48.392;9.950;2022-07-18T06:21:29;3.23;;;2.60;;
579;SDS011;276;48.392;9.950;2022-07-18T06:23:57;3.47;;;2.93;;
579;SDS011;276;48.392;9.950;2022-07-18T06:26:25;2.53;;;2.33;;
579;SDS011;276;48.392;9.950;2022-07-18T06:28:50;2.50;;;2.20;;
579;SDS011;276;48.392;9.950;2022-07-18T06:31:21;3.63;;;2.60;;
579;SDS011;276;48.392;9.950;2022-07-18T06:33:51;3.33;;;2.13;;
579;SDS011;276;48.392;9.950;2022-07-18T06:36:16;2.47;;;1.90;;
579;SDS011;276;48.392;9.950;2022-07-18T06:38:43;6.93;;;3.67;;
579;SDS011;276;48.392;9.950;2022-07-18T06:41:08;3.20;;;2.90;;
579;SDS011;276;48.392;9.950;2022-07-18T06:43:36;4.63;;;3.50;;
579;SDS011;276;48.392;9.950;2022-07-18T06:46:03;5.07;;;2.77;;
579;SDS011;276;48.392;9.950;2022-07-18T06:48:34;3.23;;;2.03;;
579;SDS011;276;48.392;9.950;2022-07-18T06:51:00;4.90;;;2.20;;
579;SDS011;276;48.392;9.950;2022-07-18T06:53:30;4.50;;;3.00;;
579;SDS011;276;48.392;9.950;2022-07-18T06:55:58;3.93;;;2.37;;
579;SDS011;276;48.392;9.950;2022-07-18T06:58:24;3.93;;;2.47;;
579;SDS011;276;48.392;9.950;2022-07-18T07:00:52;2.30;;;2.10;;
579;SDS011;276;48.392;9.950;2022-07-18T07:03:18;2.83;;;2.50;;
579;SDS011;276;48.392;9.950;2022-07-18T07:05:44;4.00;;;2.87;;
579;SDS011;276;48.392;9.950;2022-07-18T07:08:14;4.47;;;3.67;;
579;SDS011;276;48.392;9.950;2022-07-18T07:10:40;4.80;;;3.00;;
579;SDS011;276;48.392;9.950;2022-07-18T07:13:06;4.00;;;3.23;;
579;SDS011;276;48.392;9.950;2022-07-18T07:15:34;4.30;;;3.30;;
579;SDS011;276;48.392;9.950;2022-07-18T07:18:00;3.80;;;3.07;;
579;SDS011;276;48.392;9.950;2022-07-18T07:20:25;4.87;;;4.10;;
579;SDS011;276;48.392;9.950;2022-07-18T07:22:55;7.30;;;3.50;;
579;SDS011;276;48.392;9.950;2022-07-18T07:25:22;4.70;;;3.27;;
579;SDS011;276;48.392;9.950;2022-07-18T07:27:49;5.63;;;3.10;;
579;SDS011;276;48.392;9.950;2022-07-18T07:30:15;4.67;;;4.00;;
579;SDS011;276;48.392;9.950;2022-07-18T07:32:44;7.63;;;5.80;;
579;SDS011;276;48.392;9.950;2022-07-18T07:35:11;5.90;;;4.90;;
579;SDS011;276;48.392;9.950;2022-07-18T07:37:39;4.30;;;3.73;;
579;SDS011;276;48.392;9.950;2022-07-18T07:40:06;4.90;;;4.50;;
579;SDS011;276;48.392;9.950;2022-07-18T07:42:35;4.63;;;4.13;;
579;SDS011;276;48.392;9.950;2022-07-18T07:45:03;4.43;;;3.90;;
579;SDS011;276;48.392;9.950;2022-07-18T07:47:30;4.10;;;3.70;;
579;SDS011;276;48.392;9.950;2022-07-18T07:49:58;7.90;;;3.90;;
579;SDS011;276;48.392;9.950;2022-07-18T07:52:24;2.80;;;2.57;;
579;SDS011;276;48.392;9.950;2022-07-18T07:54:53;3.00;;;2.63;;
579;SDS011;276;48.392;9.950;2022-07-18T07:57:20;4.30;;;2.87;;
579;SDS011;276;48.392;9.950;2022-07-18T07:59:45;2.87;;;2.50;;
579;SDS011;276;48.392;9.950;2022-07-18T08:02:14;3.37;;;2.83;;
579;SDS011;276;48.392;9.950;2022-07-18T08:04:40;3.13;;;2.57;;
579;SDS011;276;48.392;9.950;2022-07-18T08:07:06;3.47;;;2.60;;
579;SDS011;276;48.392;9.950;2022-07-18T08:09:32;2.90;;;2.70;;
579;SDS011;276;48.392;9.950;2022-07-18T08:11:58;2.83;;;2.63;;
579;SDS011;276;48.392;9.950;2022-07-18T08:14:23;4.43;;;2.73;;
579;SDS011;276;48.392;9.950;2022-07-18T08:16:49;2.20;;;1.93;;
579;SDS011;276;48.392;9.950;2022-07-18T08:19:15;3.67;;;2.80;;
579;SDS011;276;48.392;9.950;2022-07-18T08:21:43;4.30;;;2.50;;
579;SDS011;276;48.392;9.950;2022-07-18T08:24:08;4.53;;;2.93;;
579;SDS011;276;48.392;9.950;2022-07-18T08:26:34;5.13;;;2.97;;
579;SDS011;276;48.392;9.950;2022-07-18T08:29:05;7.53;;;3.03;;
579;SDS011;276;48.392;9.950;2022-07-18T08:31:31;3.63;;;2.63;;
579;SDS011;276;48.392;9.950;2022-07-18T08:33:57;3.57;;;2.80;;
579;SDS011;276;48.392;9.950;2022-07-18T08:36:23;4.77;;;3.03;;
579;SDS011;276;48.392;9.950;2022-07-18T08:38:49;3.03;;;2.73;;
579;SDS011;276;48.392;9.950;2022-07-18T08:41:19;3.47;;;3.10;;
579;SDS011;276;48.392;9.950;2022-07-18T08:43:48;3.33;;;2.80;;
579;SDS011;276;48.392;9.950;2022-07-18T08:46:15;3.00;;;2.70;;
579;SDS011;276;48.392;9.950;2022-07-18T08:48:46;7.63;;;3.43;;
579;SDS011;276;48.392;9.950;2022-07-18T08:51:15;4.20;;;3.43;;
579;SDS011;276;48.392;9.950;2022-07-18T08:53:44;5.23;;;3.07;;
579;SDS011;276;48.392;9.950;2022-07-18T08:56:11;2.90;;;2.70;;
579;SDS011;276;48.392;9.950;2022-07-18T08:58:37;2.87;;;2.40;;
579;SDS011;276;48.392;9.950;2022-07-18T09:01:03;2.53;;;2.33;;
579;SDS011;276;48.392;9.950;2022-07-18T09:03:29;2.70;;;2.50;;
579;SDS011;276;48.392;9.950;2022-07-18T09:08:37;2.77;;;2.30;;
579;SDS011;276;48.392;9.950;2022-07-18T09:11:04;3.23;;;2.50;;
579;SDS011;276;48.392;9.950;2022-07-18T09:13:38;2.90;;;1.70;;
579;SDS011;276;48.392;9.950;2022-07-18T09:16:12;2.47;;;2.00;;
579;SDS011;276;48.392;9.950;2022-07-18T09:18:43;6.00;;;2.30;;
579;SDS011;276;48.392;9.950;2022-07-18T09:23:42;2.00;;;1.90;;
579;SDS011;276;48.392;9.950;2022-07-18T09:26:09;2.20;;;1.70;;
579;SDS011;276;48.392;9.950;2022-07-18T09:28:46;1.87;;;1.77;;
579;SDS011;276;48.392;9.950;2022-07-18T09:31:20;3.03;;;2.50;;
579;SDS011;276;48.392;9.950;2022-07-18T09:36:23;2.30;;;2.20;;
579;SDS011;276;48.392;9.950;2022-07-18T09:38:49;3.03;;;2.57;;
579;SDS011;276;48.392;9.950;2022-07-18T09:41:15;2.17;;;2.07;;
579;SDS011;276;48.392;9.950;2022-07-18T09:43:41;1.80;;;1.70;;
579;SDS011;276;48.392;9.950;2022-07-18T09:46:07;2.03;;;1.90;;
579;SDS011;276;48.392;9.950;2022-07-18T09:48:33;3.00;;;2.10;;
579;SDS011;276;48.392;9.950;2022-07-18T09:51:00;3.80;;;1.90;;
579;SDS011;276;48.392;9.950;2022-07-18T09:55:59;2.50;;;1.90;;
579;SDS011;276;48.392;9.950;2022-07-18T09:58:29;2.03;;;1.93;;
579;SDS011;276;48.392;9.950;2022-07-18T10:01:02;2.50;;;1.87;;
579;SDS011;276;48.392;9.950;2022-07-18T10:03:29;2.70;;;1.73;;
579;SDS011;276;48.392;9.950;2022-07-18T10:05:55;2.03;;;1.87;;
579;SDS011;276;48.392;9.950;2022-07-18T10:08:23;2.13;;;2.00;;
579;SDS011;276;48.392;9.950;2022-07-18T10:10:51;4.37;;;3.00;;
579;SDS011;276;48.392;9.950;2022-07-18T10:13:21;2.30;;;1.80;;
579;SDS011;276;48.392;9.950;2022-07-18T10:15:50;2.70;;;2.20;;
579;SDS011;276;48.392;9.950;2022-07-18T10:18:17;3.63;;;2.70;;
579;SDS011;276;48.392;9.950;2022-07-18T10:20:56;2.87;;;2.13;;
579;SDS011;276;48.392;9.950;2022-07-18T10:23:27;4.53;;;2.87;;
579;SDS011;276;48.392;9.950;2022-07-18T10:26:18;3.90;;;1.90;;
579;SDS011;276;48.392;9.950;2022-07-18T10:39:10;2.13;;;1.73;;
579;SDS011;276;48.392;9.950;2022-07-18T11:02:49;3.37;;;1.90;;
579;SDS011;276;48.392;9.950;2022-07-18T11:21:35;2.33;;;2.23;;
579;SDS011;276;48.392;9.950;2022-07-18T11:24:02;1.90;;;1.80;;
579;SDS011;276;48.392;9.950;2022-07-18T11:26:32;2.37;;;2.13;;
579;SDS011;276;48.392;9.950;2022-07-18T11:29:12;1.83;;;1.67;;
579;SDS011;276;48.392;9.950;2022-07-18T11:31:46;2.53;;;1.90;;
579;SDS011;276;48.392;9.950;2022-07-18T11:34:23;2.50;;;2.07;;
579;SDS011;276;48.392;9.950;2022-07-18T11:36:54;2.30;;;2.10;;
579;SDS011;276;48.392;9.950;2022-07-18T11:39:28;1.80;;;1.70;;
579;SDS011;276;48.392;9.950;2022-07-18T11:41:55;2.27;;;1.80;;
579;SDS011;276;48.392;9.950;2022-07-18T11:44:23;2.10;;;1.90;;
579;SDS011;276;48.392;9.950;2022-07-18T11:47:27;1.53;;;1.43;;
579;SDS011;276;48.392;9.950;2022-07-18T11:49:53;2.20;;;1.63;;
579;SDS011;276;48.392;9.950;2022-07-18T11:52:20;2.57;;;1.77;;
579;SDS011;276;48.392;9.950;2022-07-18T11:54:46;1.97;;;1.83;;
579;SDS011;276;48.392;9.950;2022-07-18T11:57:25;1.93;;;1.83;;
579;SDS011;276;48.392;9.950;2022-07-18T11:59:54;2.10;;;1.83;;
579;SDS011;276;48.392;9.950;2022-07-18T12:05:36;2.13;;;1.63;;
579;SDS011;276;48.392;9.950;2022-07-18T12:13:53;2.27;;;1.90;;
579;SDS011;276;48.392;9.950;2022-07-18T12:16:24;2.07;;;1.67;;
579;SDS011;276;48.392;9.950;2022-07-18T12:18:51;3.63;;;1.67;;
579;SDS011;276;48.392;9.950;2022-07-18T12:21:20;1.83;;;1.60;;
579;SDS011;276;48.392;9.950;2022-07-18T12:23:48;3.60;;;1.70;;
579;SDS011;276;48.392;9.950;2022-07-18T12:26:30;2.37;;;2.17;;
579;SDS011;276;48.392;9.950;2022-07-18T12:29:08;1.93;;;1.73;;
579;SDS011;276;48.392;9.950;2022-07-18T12:31:42;2.10;;;1.80;;
579;SDS011;276;48.392;9.950;2022-07-18T12:34:12;2.80;;;2.53;;
579;SDS011;276;48.392;9.950;2022-07-18T12:36:55;2.20;;;2.10;;
579;SDS011;276;48.392;9.950;2022-07-18T12:39:29;1.63;;;1.53;;
579;SDS011;276;48.392;9.950;2022-07-18T12:41:56;1.93;;;1.80;;
579;SDS011;276;48.392;9.950;2022-07-18T12:44:25;2.20;;;2.07;;
579;SDS011;276;48.392;9.950;2022-07-18T12:46:52;2.80;;;2.60;;
579;SDS011;276;48.392;9.950;2022-07-18T12:49:19;2.33;;;2.17;;
579;SDS011;276;48.392;9.950;2022-07-18T12:51:50;2.10;;;2.00;;
579;SDS011;276;48.392;9.950;2022-07-18T12:54:16;2.23;;;2.13;;
579;SDS011;276;48.392;9.950;2022-07-18T12:56:44;2.60;;;1.97;;
579;SDS011;276;48.392;9.950;2022-07-18T12:59:09;2.30;;;2.03;;
579;SDS011;276;48.392;9.950;2022-07-18T13:01:38;3.17;;;2.40;;
579;SDS011;276;48.392;9.950;2022-07-18T13:04:04;2.30;;;2.10;;
579;SDS011;276;48.392;9.950;2022-07-18T13:06:32;2.30;;;2.03;;
579;SDS011;276;48.392;9.950;2022-07-18T13:08:58;4.37;;;1.93;;
579;SDS011;276;48.392;9.950;2022-07-18T13:11:28;3.03;;;1.90;;
579;SDS011;276;48.392;9.950;2022-07-18T13:13:54;7.30;;;2.10;;
579;SDS011;276;48.392;9.950;2022-07-18T13:16:22;3.07;;;2.57;;
579;SDS011;276;48.392;9.950;2022-07-18T13:18:48;2.13;;;1.93;;
579;SDS011;276;48.392;9.950;2022-07-18T13:21:16;2.80;;;2.27;;
579;SDS011;276;48.392;9.950;2022-07-18T13:23:43;2.50;;;2.07;;
579;SDS011;276;48.392;9.950;2022-07-18T13:26:09;1.90;;;1.80;;
579;SDS011;276;48.392;9.950;2022-07-18T13:28:34;2.70;;;2.20;;
579;SDS011;276;48.392;9.950;2022-07-18T13:31:02;3.40;;;1.67;;
579;SDS011;276;48.392;9.950;2022-07-18T13:33:28;7.90;;;1.97;;
579;SDS011;276;48.392;9.950;2022-07-18T13:35:54;3.30;;;2.00;;
579;SDS011;276;48.392;9.950;2022-07-18T13:38:19;2.47;;;1.90;;
579;SDS011;276;48.392;9.950;2022-07-18T13:40:45;1.97;;;1.87;;
579;SDS011;276;48.392;9.950;2022-07-18T13:43:11;1.83;;;1.73;;
579;SDS011;276;48.392;9.950;2022-07-18T13:45:38;2.20;;;1.50;;
579;SDS011;276;48.392;9.950;2022-07-18T13:48:04;2.23;;;2.03;;
579;SDS011;276;48.392;9.950;2022-07-18T13:50:30;4.47;;;2.50;;
579;SDS011;276;48.392;9.950;2022-07-18T13:52:56;3.13;;;2.37;;
579;SDS011;276;48.392;9.950;2022-07-18T13:55:22;2.03;;;1.73;;
579;SDS011;276;48.392;9.950;2022-07-18T13:57:48;2.73;;;2.50;;
579;SDS011;276;48.392;9.950;2022-07-18T14:00:14;2.30;;;1.87;;
579;SDS011;276;48.392;9.950;2022-07-18T14:02:42;2.80;;;2.07;;
579;SDS011;276;48.392;9.950;2022-07-18T14:05:12;2.13;;;1.90;;
579;SDS011;276;48.392;9.950;2022-07-18T14:07:40;2.30;;;2.03;;
579;SDS011;276;48.392;9.950;2022-07-18T14:10:10;2.07;;;1.87;;
579;SDS011;276;48.392;9.950;2022-07-18T14:12:39;2.27;;;2.10;;
579;SDS011;276;48.392;9.950;2022-07-18T14:15:05;3.67;;;1.93;;
579;SDS011;276;48.392;9.950;2022-07-18T14:17:33;3.80;;;2.00;;
579;SDS011;276;48.392;9.950;2022-07-18T14:19:59;2.10;;;1.67;;
579;SDS011;276;48.392;9.950;2022-07-18T14:22:30;2.20;;;1.97;;
579;SDS011;276;48.392;9.950;2022-07-18T14:24:58;2.17;;;2.00;;
579;SDS011;276;48.392;9.950;2022-07-18T14:27:24;2.50;;;2.30;;
579;SDS011;276;48.392;9.950;2022-07-18T14:29:49;2.17;;;2.07;;
579;SDS011;276;48.392;9.950;2022-07-18T14:32:20;3.83;;;2.00;;
579;SDS011;276;48.392;9.950;2022-07-18T14:34:46;2.43;;;1.90;;
579;SDS011;276;48.392;9.950;2022-07-18T14:37:11;2.57;;;2.20;;
579;SDS011;276;48.392;9.950;2022-07-18T14:39:37;3.17;;;1.97;;
579;SDS011;276;48.392;9.950;2022-07-18T14:42:03;2.47;;;1.90;;
579;SDS011;276;48.392;9.950;2022-07-18T14:44:28;2.50;;;2.20;;
579;SDS011;276;48.392;9.950;2022-07-18T14:46:54;1.97;;;1.87;;
579;SDS011;276;48.392;9.950;2022-07-18T14:49:19;2.33;;;1.97;;
579;SDS011;276;48.392;9.950;2022-07-18T14:51:45;2.83;;;1.90;;
579;SDS011;276;48.392;9.950;2022-07-18T14:54:13;3.10;;;2.30;;
579;SDS011;276;48.392;9.950;2022-07-18T14:56:39;2.17;;;1.83;;
579;SDS011;276;48.392;9.950;2022-07-18T14:59:07;2.00;;;1.90;;
579;SDS011;276;48.392;9.950;2022-07-18T15:01:35;2.33;;;1.93;;
579;SDS011;276;48.392;9.950;2022-07-18T15:04:00;3.93;;;1.90;;
579;SDS011;276;48.392;9.950;2022-07-18T15:06:26;2.43;;;2.23;;
579;SDS011;276;48.392;9.950;2022-07-18T15:08:52;6.57;;;2.67;;
579;SDS011;276;48.392;9.950;2022-07-18T15:11:20;2.27;;;2.17;;
579;SDS011;276;48.392;9.950;2022-07-18T15:13:48;3.90;;;2.00;;
579;SDS011;276;48.392;9.950;2022-07-18T15:16:20;2.83;;;2.20;;
579;SDS011;276;48.392;9.950;2022-07-18T15:18:48;8.03;;;2.50;;
579;SDS011;276;48.392;9.950;2022-07-18T15:21:13;2.03;;;1.93;;
579;SDS011;276;48.392;9.950;2022-07-18T15:23:39;2.37;;;2.13;;
579;SDS011;276;48.392;9.950;2022-07-18T15:26:07;3.33;;;2.70;;
579;SDS011;276;48.392;9.950;2022-07-18T15:28:33;3.10;;;2.20;;
579;SDS011;276;48.392;9.950;2022-07-18T15:30:59;2.50;;;2.30;;
579;SDS011;276;48.392;9.950;2022-07-18T15:33:24;2.67;;;2.47;;
579;SDS011;276;48.392;9.950;2022-07-18T15:35:50;5.77;;;2.30;;
579;SDS011;276;48.392;9.950;2022-07-18T15:38:16;2.93;;;2.10;;
579;SDS011;276;48.392;9.950;2022-07-18T15:40:42;2.50;;;2.00;;
579;SDS011;276;48.392;9.950;2022-07-18T15:43:08;2.53;;;1.80;;
579;SDS011;276;48.392;9.950;2022-07-18T15:45:36;2.03;;;1.67;;
579;SDS011;276;48.392;9.950;2022-07-18T15:48:04;2.90;;;2.10;;
579;SDS011;276;48.392;9.950;2022-07-18T15:50:30;2.13;;;2.03;;
579;SDS011;276;48.392;9.950;2022-07-18T15:53:02;1.60;;;1.50;;
579;SDS011;276;48.392;9.950;2022-07-18T15:55:28;3.03;;;2.30;;
579;SDS011;276;48.392;9.950;2022-07-18T15:57:54;7.03;;;2.20;;
579;SDS011;276;48.392;9.950;2022-07-18T16:00:21;2.03;;;1.80;;
579;SDS011;276;48.392;9.950;2022-07-18T16:02:46;4.70;;;1.90;;
579;SDS011;276;48.392;9.950;2022-07-18T16:05:12;2.33;;;2.13;;
579;SDS011;276;48.392;9.950;2022-07-18T16:07:42;3.17;;;1.80;;
579;SDS011;276;48.392;9.950;2022-07-18T16:10:10;2.70;;;2.50;;
579;SDS011;276;48.392;9.950;2022-07-18T16:12:36;2.27;;;2.00;;
579;SDS011;276;48.392;9.950;2022-07-18T16:15:02;2.73;;;1.70;;
579;SDS011;276;48.392;9.950;2022-07-18T16:17:30;2.90;;;2.17;;
579;SDS011;276;48.392;9.950;2022-07-18T16:19:56;2.70;;;1.77;;
579;SDS011;276;48.392;9.950;2022-07-18T16:22:21;2.60;;;2.30;;
579;SDS011;276;48.392;9.950;2022-07-18T16:24:51;2.90;;;1.90;;
579;SDS011;276;48.392;9.950;2022-07-18T16:27:19;2.87;;;2.23;;
579;SDS011;276;48.392;9.950;2022-07-18T16:29:47;2.67;;;2.47;;
579;SDS011;276;48.392;9.950;2022-07-18T16:32:13;2.43;;;2.23;;
579;SDS011;276;48.392;9.950;2022-07-18T16:34:41;4.03;;;2.20;;
579;SDS011;276;48.392;9.950;2022-07-18T16:37:09;5.03;;;2.57;;
579;SDS011;276;48.392;9.950;2022-07-18T16:39:34;2.00;;;1.90;;
579;SDS011;276;48.392;9.950;2022-07-18T16:42:02;5.60;;;2.37;;
579;SDS011;276;48.392;9.950;2022-07-18T16:44:28;2.37;;;2.17;;
579;SDS011;276;48.392;9.950;2022-07-18T16:46:54;3.50;;;1.90;;
579;SDS011;276;48.392;9.950;2022-07-18T16:49:20;2.40;;;2.20;;
579;SDS011;276;48.392;9.950;2022-07-18T16:51:48;2.20;;;2.00;;
579;SDS011;276;48.392;9.950;2022-07-18T16:54:15;2.03;;;1.93;;